sensor_id;sensor_type;location;lat;lon;timestamp;P1;durP1;ratioP1;P2;durP2;ratioP2
25107;SDS011;13090;53.422;7.670;2022-08-16T00:00:11;0.00;;;0.00;;
25107;SDS011;13090;53.422;7.670;2022-08-16T00:05:23;0.10;;;0.10;;
25107;SDS011;13090;53.422;7.670;2022-08-16T00:10:35;0.00;;;0.00;;
25107;SDS011;13090;53.422;7.670;2022-08-16T00:15:40;0.10;;;0.10;;
25107;SDS011;13090;53.422;7.670;2022-08-16T00:20:54;0.00;;;0.00;;
25107;SDS011;13090;53.422;7.670;2022-08-16T00:25:57;0.15;;;0.00;;
25107;SDS011;13090;53.422;7.670;2022-08-16T00:31:21;0.20;;;0.05;;
25107;SDS011;13090;53.422;7.670;2022-08-16T00:36:24;0.00;;;0.00;;
25107;SDS011;13090;53.422;7.670;2022-08-16T00:41:28;0.00;;;0.00;;
25107;SDS011;13090;53.422;7.670;2022-08-16T00:46:43;0.00;;;0.00;;
25107;SDS011;13090;53.422;7.670;2022-08-16T00:51:54;0.00;;;0.00;;
25107;SDS011;13090;53.422;7.670;2022-08-16T00:56:57;0.05;;;0.05;;
25107;SDS011;13090;53.422;7.670;2022-08-16T01:02:04;0.00;;;0.00;;
25107;SDS011;13090;53.422;7.670;2022-08-16T01:07:27;0.00;;;0.00;;
25107;SDS011;13090;53.422;7.670;2022-08-16T01:12:50;0.00;;;0.00;;
25107;SDS011;13090;53.422;7.670;2022-08-16T01:17:55;0.00;;;0.00;;
25107;SDS011;13090;53.422;7.670;2022-08-16T01:23:00;0.00;;;0.00;;
25107;SDS011;13090;53.422;7.670;2022-08-16T01:28:12;0.00;;;0.00;;
25107;SDS011;13090;53.422;7.670;2022-08-16T01:33:20;0.00;;;0.00;;
25107;SDS011;13090;53.422;7.670;2022-08-16T01:38:25;0.00;;;0.00;;
25107;SDS011;13090;53.422;7.670;2022-08-16T01:43:33;0.00;;;0.00;;
25107;SDS011;13090;53.422;7.670;2022-08-16T01:53:40;0.00;;;0.00;;
25107;SDS011;13090;53.422;7.670;2022-08-16T01:58:44;0.00;;;0.00;;
25107;SDS011;13090;53.422;7.670;2022-08-16T02:03:48;0.10;;;0.10;;
25107;SDS011;13090;53.422;7.670;2022-08-16T02:08:52;0.00;;;0.00;;
25107;SDS011;13090;53.422;7.670;2022-08-16T02:13:56;0.10;;;0.10;;
25107;SDS011;13090;53.422;7.670;2022-08-16T02:18:58;0.10;;;0.10;;
25107;SDS011;13090;53.422;7.670;2022-08-16T02:24:01;0.00;;;0.00;;
25107;SDS011;13090;53.422;7.670;2022-08-16T02:29:25;0.00;;;0.00;;
25107;SDS011;13090;53.422;7.670;2022-08-16T02:34:33;0.00;;;0.00;;
25107;SDS011;13090;53.422;7.670;2022-08-16T02:39:41;0.00;;;0.00;;
25107;SDS011;13090;53.422;7.670;2022-08-16T02:44:45;0.10;;;0.10;;
25107;SDS011;13090;53.422;7.670;2022-08-16T02:49:49;0.00;;;0.00;;
25107;SDS011;13090;53.422;7.670;2022-08-16T02:55:12;0.10;;;0.10;;
25107;SDS011;13090;53.422;7.670;2022-08-16T03:00:17;0.00;;;0.00;;
25107;SDS011;13090;53.422;7.670;2022-08-16T03:05:35;0.00;;;0.00;;
25107;SDS011;13090;53.422;7.670;2022-08-16T03:10:39;0.00;;;0.00;;
25107;SDS011;13090;53.422;7.670;2022-08-16T03:15:43;0.15;;;0.00;;
25107;SDS011;13090;53.422;7.670;2022-08-16T03:20:50;0.10;;;0.10;;
25107;SDS011;13090;53.422;7.670;2022-08-16T03:25:56;0.00;;;0.00;;
25107;SDS011;13090;53.422;7.670;2022-08-16T03:31:01;0.00;;;0.00;;
25107;SDS011;13090;53.422;7.670;2022-08-16T03:36:04;0.00;;;0.00;;
25107;SDS011;13090;53.422;7.670;2022-08-16T03:41:27;0.00;;;0.00;;
25107;SDS011;13090;53.422;7.670;2022-08-16T03:46:51;0.08;;;0.03;;
25107;SDS011;13090;53.422;7.670;2022-08-16T03:51:53;0.10;;;0.10;;
25107;SDS011;13090;53.422;7.670;2022-08-16T03:56:56;0.00;;;0.00;;
25107;SDS011;13090;53.422;7.670;2022-08-16T04:02:00;0.00;;;0.00;;
25107;SDS011;13090;53.422;7.670;2022-08-16T04:07:13;0.03;;;0.03;;
25107;SDS011;13090;53.422;7.670;2022-08-16T04:12:16;5.45;;;3.40;;
25107;SDS011;13090;53.422;7.670;2022-08-16T04:17:40;4.53;;;3.53;;
25107;SDS011;13090;53.422;7.670;2022-08-16T04:22:43;4.75;;;3.50;;
25107;SDS011;13090;53.422;7.670;2022-08-16T04:27:49;4.63;;;3.70;;
25107;SDS011;13090;53.422;7.670;2022-08-16T04:32:57;5.55;;;4.22;;
25107;SDS011;13090;53.422;7.670;2022-08-16T04:38:00;4.80;;;4.25;;
25107;SDS011;13090;53.422;7.670;2022-08-16T04:43:21;5.30;;;4.25;;
25107;SDS011;13090;53.422;7.670;2022-08-16T04:48:26;5.40;;;4.53;;
25107;SDS011;13090;53.422;7.670;2022-08-16T04:53:34;5.65;;;3.75;;
25107;SDS011;13090;53.422;7.670;2022-08-16T04:58:41;4.97;;;4.05;;
25107;SDS011;13090;53.422;7.670;2022-08-16T05:03:49;7.80;;;4.47;;
25107;SDS011;13090;53.422;7.670;2022-08-16T05:09:01;6.50;;;5.10;;
25107;SDS011;13090;53.422;7.670;2022-08-16T05:14:05;9.43;;;6.43;;
25107;SDS011;13090;53.422;7.670;2022-08-16T05:19:11;8.93;;;6.10;;
25107;SDS011;13090;53.422;7.670;2022-08-16T05:24:16;7.80;;;6.07;;
25107;SDS011;13090;53.422;7.670;2022-08-16T05:29:25;8.93;;;6.45;;
25107;SDS011;13090;53.422;7.670;2022-08-16T05:34:49;8.45;;;6.25;;
25107;SDS011;13090;53.422;7.670;2022-08-16T05:39:51;8.63;;;6.32;;
25107;SDS011;13090;53.422;7.670;2022-08-16T05:44:56;10.38;;;6.97;;
25107;SDS011;13090;53.422;7.670;2022-08-16T05:50:00;8.18;;;6.63;;
25107;SDS011;13090;53.422;7.670;2022-08-16T05:55:04;8.50;;;6.32;;
25107;SDS011;13090;53.422;7.670;2022-08-16T06:00:10;12.80;;;6.90;;
25107;SDS011;13090;53.422;7.670;2022-08-16T06:05:24;9.73;;;7.00;;
25107;SDS011;13090;53.422;7.670;2022-08-16T06:10:28;8.65;;;6.65;;
25107;SDS011;13090;53.422;7.670;2022-08-16T06:15:33;9.70;;;6.93;;
25107;SDS011;13090;53.422;7.670;2022-08-16T06:20:38;22.55;;;13.20;;
25107;SDS011;13090;53.422;7.670;2022-08-16T06:25:56;17.30;;;12.57;;
25107;SDS011;13090;53.422;7.670;2022-08-16T06:30:59;18.92;;;14.88;;
25107;SDS011;13090;53.422;7.670;2022-08-16T06:36:04;17.48;;;14.07;;
25107;SDS011;13090;53.422;7.670;2022-08-16T06:41:08;21.53;;;14.97;;
25107;SDS011;13090;53.422;7.670;2022-08-16T06:46:22;20.40;;;14.13;;
25107;SDS011;13090;53.422;7.670;2022-08-16T06:51:34;18.52;;;14.27;;
25107;SDS011;13090;53.422;7.670;2022-08-16T06:56:47;19.08;;;15.02;;
25107;SDS011;13090;53.422;7.670;2022-08-16T07:01:54;23.15;;;16.58;;
25107;SDS011;13090;53.422;7.670;2022-08-16T07:07:00;19.98;;;17.15;;
25107;SDS011;13090;53.422;7.670;2022-08-16T07:12:03;20.17;;;16.35;;
25107;SDS011;13090;53.422;7.670;2022-08-16T07:17:06;19.27;;;16.52;;
25107;SDS011;13090;53.422;7.670;2022-08-16T07:27:38;17.60;;;15.73;;
25107;SDS011;13090;53.422;7.670;2022-08-16T07:32:41;17.48;;;15.23;;
25107;SDS011;13090;53.422;7.670;2022-08-16T07:37:53;17.38;;;13.38;;
25107;SDS011;13090;53.422;7.670;2022-08-16T07:42:56;16.02;;;13.10;;
25107;SDS011;13090;53.422;7.670;2022-08-16T07:47:58;16.08;;;11.15;;
25107;SDS011;13090;53.422;7.670;2022-08-16T07:53:14;12.50;;;11.30;;
25107;SDS011;13090;53.422;7.670;2022-08-16T07:58:16;13.85;;;10.48;;
25107;SDS011;13090;53.422;7.670;2022-08-16T08:03:36;11.57;;;8.88;;
25107;SDS011;13090;53.422;7.670;2022-08-16T08:08:42;12.73;;;9.35;;
25107;SDS011;13090;53.422;7.670;2022-08-16T08:13:52;9.90;;;8.90;;
25107;SDS011;13090;53.422;7.670;2022-08-16T08:18:57;12.60;;;8.40;;
25107;SDS011;13090;53.422;7.670;2022-08-16T08:24:05;8.43;;;7.43;;
25107;SDS011;13090;53.422;7.670;2022-08-16T08:29:10;6.70;;;6.00;;
25107;SDS011;13090;53.422;7.670;2022-08-16T08:34:13;12.65;;;9.18;;
25107;SDS011;13090;53.422;7.670;2022-08-16T08:39:20;7.10;;;6.10;;
25107;SDS011;13090;53.422;7.670;2022-08-16T08:44:23;7.65;;;6.13;;
25107;SDS011;13090;53.422;7.670;2022-08-16T08:49:31;8.55;;;5.57;;
25107;SDS011;13090;53.422;7.670;2022-08-16T08:54:57;5.47;;;4.72;;
25107;SDS011;13090;53.422;7.670;2022-08-16T09:00:00;13.90;;;10.47;;
25107;SDS011;13090;53.422;7.670;2022-08-16T09:05:08;6.60;;;5.65;;
25107;SDS011;13090;53.422;7.670;2022-08-16T09:10:18;5.35;;;4.78;;
25107;SDS011;13090;53.422;7.670;2022-08-16T09:15:22;7.22;;;5.35;;
25107;SDS011;13090;53.422;7.670;2022-08-16T09:20:26;6.82;;;5.22;;
25107;SDS011;13090;53.422;7.670;2022-08-16T09:25:31;8.68;;;5.25;;
25107;SDS011;13090;53.422;7.670;2022-08-16T09:30:36;7.40;;;4.68;;
25107;SDS011;13090;53.422;7.670;2022-08-16T09:35:45;17.08;;;5.25;;
25107;SDS011;13090;53.422;7.670;2022-08-16T09:40:55;7.28;;;5.30;;
25107;SDS011;13090;53.422;7.670;2022-08-16T09:45:59;5.43;;;4.55;;
25107;SDS011;13090;53.422;7.670;2022-08-16T09:51:03;10.15;;;5.00;;
25107;SDS011;13090;53.422;7.670;2022-08-16T09:56:09;7.30;;;5.40;;
25107;SDS011;13090;53.422;7.670;2022-08-16T10:01:27;7.40;;;5.30;;
25107;SDS011;13090;53.422;7.670;2022-08-16T10:06:30;5.60;;;4.80;;
25107;SDS011;13090;53.422;7.670;2022-08-16T10:11:36;9.23;;;5.27;;
25107;SDS011;13090;53.422;7.670;2022-08-16T10:16:51;7.68;;;4.72;;
25107;SDS011;13090;53.422;7.670;2022-08-16T10:22:03;5.82;;;4.55;;
25107;SDS011;13090;53.422;7.670;2022-08-16T10:27:07;5.75;;;5.15;;
25107;SDS011;13090;53.422;7.670;2022-08-16T10:32:30;5.65;;;4.95;;
25107;SDS011;13090;53.422;7.670;2022-08-16T10:37:33;7.53;;;4.70;;
25107;SDS011;13090;53.422;7.670;2022-08-16T10:42:38;7.97;;;4.80;;
25107;SDS011;13090;53.422;7.670;2022-08-16T10:47:42;6.65;;;6.03;;
25107;SDS011;13090;53.422;7.670;2022-08-16T10:52:45;5.43;;;4.50;;
25107;SDS011;13090;53.422;7.670;2022-08-16T10:57:54;5.07;;;4.47;;
25107;SDS011;13090;53.422;7.670;2022-08-16T11:02:57;4.90;;;4.25;;
25107;SDS011;13090;53.422;7.670;2022-08-16T11:08:20;7.03;;;5.70;;
25107;SDS011;13090;53.422;7.670;2022-08-16T11:13:38;11.77;;;5.20;;
25107;SDS011;13090;53.422;7.670;2022-08-16T11:19:01;8.97;;;5.10;;
25107;SDS011;13090;53.422;7.670;2022-08-16T11:24:14;5.80;;;4.78;;
25107;SDS011;13090;53.422;7.670;2022-08-16T11:29:37;6.75;;;5.13;;
25107;SDS011;13090;53.422;7.670;2022-08-16T11:34:40;7.10;;;5.32;;
25107;SDS011;13090;53.422;7.670;2022-08-16T11:40:03;6.85;;;4.68;;
25107;SDS011;13090;53.422;7.670;2022-08-16T11:45:11;6.03;;;5.40;;
25107;SDS011;13090;53.422;7.670;2022-08-16T11:50:15;5.90;;;5.15;;
25107;SDS011;13090;53.422;7.670;2022-08-16T11:55:18;5.65;;;4.32;;
25107;SDS011;13090;53.422;7.670;2022-08-16T12:00:26;4.57;;;4.18;;
25107;SDS011;13090;53.422;7.670;2022-08-16T12:05:50;5.32;;;3.38;;
25107;SDS011;13090;53.422;7.670;2022-08-16T12:10:55;4.60;;;3.63;;
25107;SDS011;13090;53.422;7.670;2022-08-16T12:16:02;4.97;;;3.20;;
25107;SDS011;13090;53.422;7.670;2022-08-16T12:26:10;4.37;;;3.47;;
25107;SDS011;13090;53.422;7.670;2022-08-16T12:31:15;5.18;;;3.50;;
25107;SDS011;13090;53.422;7.670;2022-08-16T12:36:18;7.28;;;3.72;;
25107;SDS011;13090;53.422;7.670;2022-08-16T12:41:21;4.40;;;3.88;;
25107;SDS011;13090;53.422;7.670;2022-08-16T12:46:27;5.68;;;3.45;;
25107;SDS011;13090;53.422;7.670;2022-08-16T12:51:32;4.35;;;3.90;;
25107;SDS011;13090;53.422;7.670;2022-08-16T12:56:56;4.05;;;3.65;;
25107;SDS011;13090;53.422;7.670;2022-08-16T13:02:00;4.90;;;3.20;;
25107;SDS011;13090;53.422;7.670;2022-08-16T13:07:06;3.60;;;3.30;;
25107;SDS011;13090;53.422;7.670;2022-08-16T13:12:09;3.60;;;3.28;;
25107;SDS011;13090;53.422;7.670;2022-08-16T13:17:15;4.22;;;3.83;;
25107;SDS011;13090;53.422;7.670;2022-08-16T13:22:20;4.40;;;4.00;;
25107;SDS011;13090;53.422;7.670;2022-08-16T13:27:24;4.93;;;3.58;;
25107;SDS011;13090;53.422;7.670;2022-08-16T13:32:49;3.60;;;3.30;;
25107;SDS011;13090;53.422;7.670;2022-08-16T13:37:53;9.75;;;3.85;;
25107;SDS011;13090;53.422;7.670;2022-08-16T13:42:57;3.50;;;3.20;;
25107;SDS011;13090;53.422;7.670;2022-08-16T13:48:01;3.83;;;2.95;;
25107;SDS011;13090;53.422;7.670;2022-08-16T13:53:05;3.50;;;3.20;;
25107;SDS011;13090;53.422;7.670;2022-08-16T13:58:08;7.53;;;3.15;;
25107;SDS011;13090;53.422;7.670;2022-08-16T14:03:32;5.20;;;3.03;;
25107;SDS011;13090;53.422;7.670;2022-08-16T14:08:34;5.35;;;3.33;;
25107;SDS011;13090;53.422;7.670;2022-08-16T14:13:42;4.63;;;3.53;;
25107;SDS011;13090;53.422;7.670;2022-08-16T14:18:47;3.42;;;3.13;;
25107;SDS011;13090;53.422;7.670;2022-08-16T14:23:50;3.97;;;3.10;;
25107;SDS011;13090;53.422;7.670;2022-08-16T14:28:53;4.15;;;3.38;;
25107;SDS011;13090;53.422;7.670;2022-08-16T14:34:03;6.38;;;3.42;;
25107;SDS011;13090;53.422;7.670;2022-08-16T14:39:11;5.07;;;3.22;;
25107;SDS011;13090;53.422;7.670;2022-08-16T14:44:14;4.32;;;3.95;;
25107;SDS011;13090;53.422;7.670;2022-08-16T14:49:17;10.90;;;4.70;;
25107;SDS011;13090;53.422;7.670;2022-08-16T14:54:21;7.53;;;6.37;;
25107;SDS011;13090;53.422;7.670;2022-08-16T14:59:30;6.05;;;4.80;;
25107;SDS011;13090;53.422;7.670;2022-08-16T15:04:43;5.10;;;4.40;;
25107;SDS011;13090;53.422;7.670;2022-08-16T15:09:50;5.88;;;4.55;;
25107;SDS011;13090;53.422;7.670;2022-08-16T15:15:04;7.45;;;5.05;;
25107;SDS011;13090;53.422;7.670;2022-08-16T15:20:18;8.75;;;4.95;;
25107;SDS011;13090;53.422;7.670;2022-08-16T15:25:22;5.78;;;5.00;;
25107;SDS011;13090;53.422;7.670;2022-08-16T15:30:30;5.35;;;4.85;;
25107;SDS011;13090;53.422;7.670;2022-08-16T15:35:55;11.50;;;6.40;;
25107;SDS011;13090;53.422;7.670;2022-08-16T15:40:59;10.68;;;5.97;;
25107;SDS011;13090;53.422;7.670;2022-08-16T15:46:02;9.63;;;6.30;;
25107;SDS011;13090;53.422;7.670;2022-08-16T15:51:06;14.88;;;5.90;;
25107;SDS011;13090;53.422;7.670;2022-08-16T15:56:09;6.40;;;5.53;;
25107;SDS011;13090;53.422;7.670;2022-08-16T16:01:14;9.55;;;6.25;;
25107;SDS011;13090;53.422;7.670;2022-08-16T16:06:20;9.35;;;6.47;;
25107;SDS011;13090;53.422;7.670;2022-08-16T16:11:30;7.25;;;5.40;;
25107;SDS011;13090;53.422;7.670;2022-08-16T16:16:33;11.45;;;6.70;;
25107;SDS011;13090;53.422;7.670;2022-08-16T16:21:36;8.60;;;5.70;;
25107;SDS011;13090;53.422;7.670;2022-08-16T16:26:39;12.85;;;5.90;;
25107;SDS011;13090;53.422;7.670;2022-08-16T16:31:47;10.38;;;6.70;;
25107;SDS011;13090;53.422;7.670;2022-08-16T16:37:02;9.73;;;6.20;;
25107;SDS011;13090;53.422;7.670;2022-08-16T16:42:10;9.52;;;5.30;;
25107;SDS011;13090;53.422;7.670;2022-08-16T16:47:31;7.05;;;6.05;;
25107;SDS011;13090;53.422;7.670;2022-08-16T16:52:50;7.15;;;5.07;;
25107;SDS011;13090;53.422;7.670;2022-08-16T16:57:54;7.68;;;6.45;;
25107;SDS011;13090;53.422;7.670;2022-08-16T17:02:57;8.95;;;6.53;;
25107;SDS011;13090;53.422;7.670;2022-08-16T17:08:03;10.80;;;7.28;;
25107;SDS011;13090;53.422;7.670;2022-08-16T17:13:07;8.02;;;5.80;;
25107;SDS011;13090;53.422;7.670;2022-08-16T17:18:10;6.95;;;6.10;;
25107;SDS011;13090;53.422;7.670;2022-08-16T17:23:34;7.60;;;6.03;;
25107;SDS011;13090;53.422;7.670;2022-08-16T17:28:57;9.35;;;5.78;;
25107;SDS011;13090;53.422;7.670;2022-08-16T17:34:12;10.00;;;7.35;;
25107;SDS011;13090;53.422;7.670;2022-08-16T17:39:33;8.63;;;6.45;;
25107;SDS011;13090;53.422;7.670;2022-08-16T17:44:57;10.00;;;7.38;;
25107;SDS011;13090;53.422;7.670;2022-08-16T17:50:00;18.00;;;12.88;;
25107;SDS011;13090;53.422;7.670;2022-08-16T17:55:06;10.73;;;8.65;;
25107;SDS011;13090;53.422;7.670;2022-08-16T18:00:11;9.25;;;7.05;;
25107;SDS011;13090;53.422;7.670;2022-08-16T18:05:20;9.90;;;6.75;;
25107;SDS011;13090;53.422;7.670;2022-08-16T18:10:26;9.23;;;6.78;;
25107;SDS011;13090;53.422;7.670;2022-08-16T18:15:37;8.52;;;6.85;;
25107;SDS011;13090;53.422;7.670;2022-08-16T18:20:41;11.25;;;8.38;;
25107;SDS011;13090;53.422;7.670;2022-08-16T18:25:48;9.93;;;7.15;;
25107;SDS011;13090;53.422;7.670;2022-08-16T18:30:54;6.80;;;5.95;;
25107;SDS011;13090;53.422;7.670;2022-08-16T18:36:02;5.75;;;4.72;;
25107;SDS011;13090;53.422;7.670;2022-08-16T18:41:24;6.43;;;4.85;;
25107;SDS011;13090;53.422;7.670;2022-08-16T18:46:29;6.15;;;4.57;;
25107;SDS011;13090;53.422;7.670;2022-08-16T18:51:32;8.13;;;4.70;;
25107;SDS011;13090;53.422;7.670;2022-08-16T18:56:39;4.85;;;4.45;;
25107;SDS011;13090;53.422;7.670;2022-08-16T19:01:58;6.25;;;4.43;;
25107;SDS011;13090;53.422;7.670;2022-08-16T19:07:06;28.10;;;21.83;;
25107;SDS011;13090;53.422;7.670;2022-08-16T19:12:12;7.55;;;5.97;;
25107;SDS011;13090;53.422;7.670;2022-08-16T19:17:17;8.27;;;6.80;;
25107;SDS011;13090;53.422;7.670;2022-08-16T19:22:24;7.50;;;5.40;;
25107;SDS011;13090;53.422;7.670;2022-08-16T19:27:49;12.45;;;5.28;;
25107;SDS011;13090;53.422;7.670;2022-08-16T19:32:52;8.55;;;5.82;;
25107;SDS011;13090;53.422;7.670;2022-08-16T19:37:55;7.70;;;5.63;;
25107;SDS011;13090;53.422;7.670;2022-08-16T19:42:59;8.73;;;7.05;;
25107;SDS011;13090;53.422;7.670;2022-08-16T19:48:03;10.05;;;7.30;;
25107;SDS011;13090;53.422;7.670;2022-08-16T19:53:07;11.65;;;7.38;;
25107;SDS011;13090;53.422;7.670;2022-08-16T19:58:22;9.75;;;8.15;;
25107;SDS011;13090;53.422;7.670;2022-08-16T20:03:24;7.75;;;6.75;;
25107;SDS011;13090;53.422;7.670;2022-08-16T20:08:27;9.13;;;7.18;;
25107;SDS011;13090;53.422;7.670;2022-08-16T20:13:31;14.48;;;10.23;;
25107;SDS011;13090;53.422;7.670;2022-08-16T20:18:34;12.98;;;9.77;;
25107;SDS011;13090;53.422;7.670;2022-08-16T20:23:37;11.52;;;9.65;;
25107;SDS011;13090;53.422;7.670;2022-08-16T20:28:41;8.77;;;7.75;;
25107;SDS011;13090;53.422;7.670;2022-08-16T20:33:55;12.20;;;8.73;;
25107;SDS011;13090;53.422;7.670;2022-08-16T20:38:57;10.15;;;8.82;;
25107;SDS011;13090;53.422;7.670;2022-08-16T20:44:01;9.95;;;8.75;;
25107;SDS011;13090;53.422;7.670;2022-08-16T20:49:04;10.48;;;8.50;;
25107;SDS011;13090;53.422;7.670;2022-08-16T20:54:10;11.95;;;9.48;;
25107;SDS011;13090;53.422;7.670;2022-08-16T20:59:17;11.20;;;9.57;;
25107;SDS011;13090;53.422;7.670;2022-08-16T21:04:20;15.45;;;10.32;;
25107;SDS011;13090;53.422;7.670;2022-08-16T21:09:26;10.65;;;8.80;;
25107;SDS011;13090;53.422;7.670;2022-08-16T21:14:31;12.75;;;10.20;;
25107;SDS011;13090;53.422;7.670;2022-08-16T21:19:35;16.67;;;11.07;;
25107;SDS011;13090;53.422;7.670;2022-08-16T21:24:38;11.73;;;10.50;;
25107;SDS011;13090;53.422;7.670;2022-08-16T21:29:42;15.80;;;11.00;;
25107;SDS011;13090;53.422;7.670;2022-08-16T21:34:46;11.98;;;10.45;;
25107;SDS011;13090;53.422;7.670;2022-08-16T21:39:49;11.73;;;10.30;;
25107;SDS011;13090;53.422;7.670;2022-08-16T21:44:53;9.60;;;8.18;;
25107;SDS011;13090;53.422;7.670;2022-08-16T21:49:56;11.40;;;9.32;;
25107;SDS011;13090;53.422;7.670;2022-08-16T21:54:58;11.05;;;9.20;;
25107;SDS011;13090;53.422;7.670;2022-08-16T22:00:03;10.90;;;8.88;;
25107;SDS011;13090;53.422;7.670;2022-08-16T22:05:10;10.50;;;8.45;;
25107;SDS011;13090;53.422;7.670;2022-08-16T22:10:12;13.23;;;11.77;;
25107;SDS011;13090;53.422;7.670;2022-08-16T22:15:37;13.00;;;10.13;;
25107;SDS011;13090;53.422;7.670;2022-08-16T22:20:40;12.68;;;9.93;;
25107;SDS011;13090;53.422;7.670;2022-08-16T22:25:44;12.52;;;9.52;;
25107;SDS011;13090;53.422;7.670;2022-08-16T22:30:49;11.50;;;9.80;;
25107;SDS011;13090;53.422;7.670;2022-08-16T22:35:53;11.48;;;9.90;;
25107;SDS011;13090;53.422;7.670;2022-08-16T22:40:57;10.95;;;9.60;;
25107;SDS011;13090;53.422;7.670;2022-08-16T22:46:01;12.18;;;9.85;;
25107;SDS011;13090;53.422;7.670;2022-08-16T22:51:04;11.77;;;10.13;;
25107;SDS011;13090;53.422;7.670;2022-08-16T22:56:07;13.45;;;10.52;;
25107;SDS011;13090;53.422;7.670;2022-08-16T23:01:12;10.57;;;9.32;;
25107;SDS011;13090;53.422;7.670;2022-08-16T23:06:17;12.00;;;8.20;;
25107;SDS011;13090;53.422;7.670;2022-08-16T23:11:20;7.07;;;6.38;;
25107;SDS011;13090;53.422;7.670;2022-08-16T23:16:27;8.45;;;7.65;;
25107;SDS011;13090;53.422;7.670;2022-08-16T23:27:09;10.35;;;9.13;;
25107;SDS011;13090;53.422;7.670;2022-08-16T23:32:13;9.55;;;8.43;;
25107;SDS011;13090;53.422;7.670;2022-08-16T23:37:16;8.98;;;8.05;;
25107;SDS011;13090;53.422;7.670;2022-08-16T23:42:19;8.40;;;7.60;;
25107;SDS011;13090;53.422;7.670;2022-08-16T23:47:43;8.05;;;7.25;;
25107;SDS011;13090;53.422;7.670;2022-08-16T23:52:55;8.20;;;7.40;;
25107;SDS011;13090;53.422;7.670;2022-08-16T23:58:02;8.25;;;7.45;;
